createdAt,value
2022-08-25T00:01:27.005Z,21.46
2022-08-25T00:03:57.122Z,21.38
2022-08-25T00:06:24.862Z,21.51
2022-08-25T00:08:52.319Z,21.58
2022-08-25T00:11:22.383Z,21.41
2022-08-25T00:13:52.383Z,21.32
2022-08-25T00:16:22.705Z,21.27
2022-08-25T00:18:52.816Z,21.22
2022-08-25T00:21:20.319Z,21.27
2022-08-25T00:23:48.469Z,21.26
2022-08-25T00:26:16.666Z,21.16
2022-08-25T00:28:44.629Z,21.16
2022-08-25T00:31:13.467Z,21.07
2022-08-25T00:33:43.417Z,21.07
2022-08-25T00:36:10.781Z,21.11
2022-08-25T00:38:38.385Z,21.29
2022-08-25T00:41:06.163Z,21.27
2022-08-25T00:43:35.912Z,21.18
2022-08-25T00:46:03.269Z,21.22
2022-08-25T00:48:30.821Z,21.30
2022-08-25T00:51:00.390Z,21.19
2022-08-25T00:53:28.319Z,21.06
2022-08-25T00:55:56.042Z,20.98
2022-08-25T00:58:26.608Z,20.99
2022-08-25T01:00:56.366Z,20.88
2022-08-25T01:03:31.618Z,20.84
2022-08-25T01:06:03.393Z,20.72
2022-08-25T01:08:32.727Z,20.66
2022-08-25T01:11:04.440Z,20.60
2022-08-25T01:13:35.435Z,20.62
2022-08-25T01:16:03.662Z,20.64
2022-08-25T01:18:43.995Z,20.66
2022-08-25T01:21:13.121Z,20.62
2022-08-25T01:23:40.509Z,20.65
2022-08-25T01:26:09.882Z,20.62
2022-08-25T01:28:37.966Z,20.72
2022-08-25T01:31:05.467Z,20.73
2022-08-25T01:33:51.985Z,20.71
2022-08-25T01:36:21.516Z,20.73
2022-08-25T01:38:49.031Z,20.65
2022-08-25T01:41:17.582Z,20.77
2022-08-25T01:43:44.776Z,20.85
2022-08-25T01:46:12.063Z,20.89
2022-08-25T01:48:39.522Z,20.98
2022-08-25T01:51:06.729Z,20.96
2022-08-25T01:53:35.453Z,20.94
2022-08-25T01:56:09.709Z,20.99
2022-08-25T01:58:40.337Z,21.12
2022-08-25T02:01:09.858Z,21.18
2022-08-25T02:03:38.594Z,21.00
2022-08-25T02:06:12.209Z,20.98
2022-08-25T02:08:41.358Z,20.98
2022-08-25T02:11:12.002Z,21.06
2022-08-25T02:13:39.953Z,20.92
2022-08-25T02:16:10.070Z,20.90
2022-08-25T02:18:37.481Z,20.88
2022-08-25T02:21:05.203Z,20.88
2022-08-25T02:23:32.500Z,20.84
2022-08-25T02:26:01.186Z,20.92
2022-08-25T02:28:28.671Z,20.87
2022-08-25T02:31:01.397Z,20.86
2022-08-25T02:33:29.390Z,20.72
2022-08-25T02:35:58.436Z,20.57
2022-08-25T02:38:25.635Z,20.65
2022-08-25T02:40:52.835Z,20.66
2022-08-25T02:43:22.136Z,20.58
2022-08-25T02:45:49.398Z,20.66
2022-08-25T02:48:38.647Z,20.65
2022-08-25T02:51:08.305Z,20.64
2022-08-25T02:53:37.161Z,20.62
2022-08-25T02:56:04.607Z,20.57
2022-08-25T02:58:33.551Z,20.49
2022-08-25T03:01:00.849Z,20.55
2022-08-25T03:03:28.274Z,20.49
2022-08-25T03:05:55.955Z,20.41
2022-08-25T03:08:23.435Z,20.45
2022-08-25T03:10:52.059Z,20.40
2022-08-25T03:13:19.678Z,20.41
2022-08-25T03:15:49.294Z,20.38
2022-08-25T03:18:16.599Z,20.25
2022-08-25T03:20:44.948Z,20.13
2022-08-25T03:23:12.514Z,20.18
2022-08-25T03:25:41.030Z,20.36
2022-08-25T03:28:09.106Z,20.55
2022-08-25T03:30:36.380Z,20.50
2022-08-25T03:33:05.116Z,20.34
2022-08-25T03:35:32.709Z,20.19
2022-08-25T03:38:01.056Z,20.24
2022-08-25T03:40:28.971Z,20.34
2022-08-25T03:42:56.545Z,20.51
2022-08-25T03:45:25.382Z,20.62
2022-08-25T03:47:53.571Z,20.57
2022-08-25T03:50:23.572Z,20.50
2022-08-25T03:52:52.766Z,20.41
2022-08-25T03:55:22.118Z,20.23
2022-08-25T03:57:50.307Z,20.22
2022-08-25T04:00:17.796Z,20.26
2022-08-25T04:02:45.087Z,20.43
2022-08-25T04:05:13.258Z,20.43
2022-08-25T04:07:44.748Z,20.50
2022-08-25T04:10:13.103Z,20.51
2022-08-25T04:12:40.548Z,20.48
2022-08-25T04:15:08.727Z,20.49
2022-08-25T04:17:38.021Z,20.43
2022-08-25T04:20:07.452Z,20.28
2022-08-25T04:22:36.817Z,20.37
2022-08-25T04:25:06.985Z,20.49
2022-08-25T04:27:34.675Z,20.57
2022-08-25T04:30:01.894Z,20.49
2022-08-25T04:32:30.510Z,20.39
2022-08-25T04:34:58.051Z,20.31
2022-08-25T04:37:25.258Z,20.36
2022-08-25T04:39:52.881Z,20.43
2022-08-25T04:42:22.216Z,20.70
2022-08-25T04:44:49.429Z,20.78
2022-08-25T04:47:16.623Z,20.65
2022-08-25T04:49:44.156Z,20.72
2022-08-25T04:52:14.505Z,20.89
2022-08-25T04:54:42.064Z,20.87
2022-08-25T04:57:09.642Z,20.91
2022-08-25T04:59:38.549Z,20.94
2022-08-25T05:02:06.315Z,20.97
2022-08-25T05:04:35.366Z,21.10
2022-08-25T05:07:03.728Z,21.32
2022-08-25T05:09:32.480Z,21.49
2022-08-25T05:12:02.253Z,21.77
2022-08-25T05:14:30.316Z,21.64
2022-08-25T05:17:01.378Z,21.49
2022-08-25T05:19:29.008Z,21.64
2022-08-25T05:21:57.759Z,21.60
2022-08-25T05:24:25.545Z,21.80
2022-08-25T05:26:53.113Z,21.81
2022-08-25T05:29:20.370Z,21.97
2022-08-25T05:31:50.604Z,22.21
2022-08-25T05:34:20.505Z,22.06
2022-08-25T05:36:48.694Z,21.91
2022-08-25T05:39:16.071Z,21.81
2022-08-25T05:41:44.158Z,21.78
2022-08-25T05:44:19.118Z,22.03
2022-08-25T05:46:49.769Z,21.98
2022-08-25T05:49:17.310Z,21.99
2022-08-25T05:51:48.998Z,22.11
2022-08-25T05:54:16.620Z,22.20
2022-08-25T05:56:44.039Z,22.25
2022-08-25T05:59:11.390Z,22.43
2022-08-25T06:01:39.102Z,22.49
2022-08-25T06:04:06.537Z,22.60
2022-08-25T06:06:33.862Z,22.71
2022-08-25T06:09:04.204Z,22.62
2022-08-25T06:11:31.429Z,22.67
2022-08-25T06:13:58.712Z,22.74
2022-08-25T06:16:26.437Z,22.61
2022-08-25T06:18:56.774Z,22.60
2022-08-25T06:21:24.212Z,22.58
2022-08-25T06:23:51.884Z,22.64
2022-08-25T06:26:25.075Z,22.76
2022-08-25T06:28:53.600Z,22.81
2022-08-25T06:31:21.749Z,23.08
2022-08-25T06:33:51.951Z,23.11
2022-08-25T06:36:20.285Z,23.12
2022-08-25T06:38:48.523Z,23.10
2022-08-25T06:41:18.482Z,23.12
2022-08-25T06:43:50.819Z,23.31
2022-08-25T06:46:22.229Z,23.53
2022-08-25T06:49:03.796Z,23.33
2022-08-25T06:51:31.029Z,23.40
2022-08-25T06:54:00.965Z,23.38
2022-08-25T06:56:28.497Z,23.08
2022-08-25T06:58:59.217Z,22.96
2022-08-25T07:01:27.372Z,23.07
2022-08-25T07:03:58.345Z,23.15
2022-08-25T07:06:27.765Z,23.24
2022-08-25T07:08:55.437Z,23.30
2022-08-25T07:11:23.128Z,23.41
2022-08-25T07:13:51.292Z,23.49
2022-08-25T07:16:21.476Z,23.47
2022-08-25T07:18:49.259Z,23.46
2022-08-25T07:21:17.414Z,23.44
2022-08-25T07:23:47.821Z,23.70
2022-08-25T07:29:07.785Z,23.63
2022-08-25T07:31:37.552Z,23.84
2022-08-25T07:34:05.233Z,23.87
2022-08-25T07:36:33.956Z,23.93
2022-08-25T07:39:01.967Z,24.07
2022-08-25T07:41:29.365Z,23.90
2022-08-25T07:43:56.788Z,23.94
2022-08-25T07:46:24.424Z,23.90
2022-08-25T07:48:53.586Z,24.01
2022-08-25T07:51:21.212Z,24.10
2022-08-25T07:53:50.313Z,24.03
2022-08-25T07:56:17.950Z,23.98
2022-08-25T07:58:46.660Z,23.95
2022-08-25T08:01:15.381Z,23.97
2022-08-25T08:03:50.347Z,24.11
2022-08-25T08:06:23.164Z,24.03
2022-08-25T08:08:54.617Z,24.10
2022-08-25T08:11:27.455Z,24.38
2022-08-25T08:13:56.177Z,24.58
2022-08-25T08:16:27.358Z,24.48
2022-08-25T08:18:54.836Z,24.34
2022-08-25T08:21:26.974Z,24.16
2022-08-25T08:23:58.888Z,24.23
2022-08-25T08:26:36.485Z,24.05
2022-08-25T08:29:14.796Z,23.86
2022-08-25T08:31:48.814Z,23.90
2022-08-25T08:34:17.311Z,23.95
2022-08-25T08:36:46.063Z,24.10
2022-08-25T08:39:13.341Z,24.19
2022-08-25T08:42:11.535Z,24.25
2022-08-25T08:44:54.352Z,24.37
2022-08-25T08:47:32.098Z,24.39
2022-08-25T08:50:05.729Z,24.53
2022-08-25T08:52:42.916Z,24.67
2022-08-25T08:55:15.981Z,24.68
2022-08-25T09:00:20.299Z,24.86
2022-08-25T09:02:54.773Z,24.93
2022-08-25T09:05:27.217Z,25.07
2022-08-25T09:07:58.294Z,25.02
2022-08-25T09:10:33.643Z,25.05
2022-08-25T09:13:15.296Z,25.17
2022-08-25T09:16:00.001Z,25.61
2022-08-25T09:18:41.191Z,25.99
2022-08-25T09:21:25.038Z,26.29
2022-08-25T09:24:09.359Z,26.45
2022-08-25T09:26:47.578Z,26.79
2022-08-25T09:29:20.760Z,26.98
2022-08-25T09:31:49.108Z,27.02
2022-08-25T09:34:20.402Z,26.91
2022-08-25T09:36:47.749Z,26.97
2022-08-25T09:39:17.356Z,27.29
2022-08-25T09:41:47.508Z,27.23
2022-08-25T09:44:22.975Z,27.46
2022-08-25T09:47:00.013Z,27.50
2022-08-25T09:49:34.095Z,27.66
2022-08-25T09:52:32.252Z,27.76
2022-08-25T09:55:22.336Z,27.81
2022-08-25T09:57:56.084Z,27.94
2022-08-25T10:00:26.477Z,27.88
2022-08-25T10:03:10.106Z,28.29
2022-08-25T10:05:56.304Z,28.48
2022-08-25T10:08:29.909Z,28.76
2022-08-25T10:11:00.813Z,29.07
2022-08-25T10:13:41.046Z,29.52
2022-08-25T10:16:20.345Z,29.29
2022-08-25T10:19:06.206Z,29.17
2022-08-25T10:21:35.509Z,29.25
2022-08-25T10:24:06.837Z,29.15
2022-08-25T10:26:48.514Z,29.09
2022-08-25T10:29:29.343Z,29.37
2022-08-25T10:32:12.145Z,29.37
2022-08-25T10:34:51.667Z,29.48
2022-08-25T10:37:34.796Z,29.38
2022-08-25T10:40:12.196Z,29.51
2022-08-25T10:42:51.683Z,29.82
2022-08-25T10:45:23.191Z,29.71
2022-08-25T10:48:25.124Z,30.00
2022-08-25T10:50:56.916Z,29.70
2022-08-25T10:53:28.842Z,29.92
2022-08-25T10:56:13.747Z,30.05
2022-08-25T10:59:10.051Z,30.16
2022-08-25T11:01:58.048Z,30.34
2022-08-25T11:04:32.693Z,30.10
2022-08-25T11:07:08.258Z,30.14
2022-08-25T11:09:41.547Z,29.88
2022-08-25T11:12:13.892Z,29.84
2022-08-25T11:14:49.268Z,29.68
2022-08-25T11:17:20.201Z,29.93
2022-08-25T11:19:49.338Z,30.12
2022-08-25T11:22:22.907Z,30.53
2022-08-25T11:25:02.046Z,30.67
2022-08-25T11:27:37.022Z,30.93
2022-08-25T11:30:10.039Z,31.37
2022-08-25T11:32:39.162Z,31.13
2022-08-25T11:35:13.300Z,31.13
2022-08-25T11:37:54.115Z,31.18
2022-08-25T11:40:41.266Z,31.00
2022-08-25T11:43:25.316Z,30.85
2022-08-25T11:46:04.083Z,31.08
2022-08-25T11:48:47.502Z,31.16
2022-08-25T11:51:30.822Z,31.42
2022-08-25T11:54:18.512Z,31.44
2022-08-25T11:57:00.389Z,32.02
2022-08-25T12:00:08.199Z,32.49
2022-08-25T12:02:40.294Z,32.32
2022-08-25T12:05:32.230Z,32.45
2022-08-25T12:08:07.768Z,32.73
2022-08-25T12:10:55.997Z,32.99
2022-08-25T12:13:39.787Z,33.28
2022-08-25T12:16:08.028Z,32.93
2022-08-25T12:18:45.840Z,32.80
2022-08-25T12:21:32.092Z,32.70
2022-08-25T12:24:16.036Z,32.82
2022-08-25T12:26:52.727Z,32.79
2022-08-25T12:29:40.435Z,32.76
2022-08-25T12:32:39.493Z,32.63
2022-08-25T12:35:21.552Z,32.17
2022-08-25T12:37:58.499Z,32.25
2022-08-25T12:40:32.659Z,32.22
2022-08-25T12:43:25.149Z,31.95
2022-08-25T12:46:33.582Z,31.75
2022-08-25T12:49:02.644Z,31.95
2022-08-25T12:51:48.983Z,32.04
2022-08-25T12:54:22.726Z,32.02
2022-08-25T12:56:55.882Z,32.09
2022-08-25T12:59:31.624Z,32.34
2022-08-25T13:02:24.784Z,32.32
2022-08-25T13:05:36.269Z,32.39
2022-08-25T13:08:37.033Z,32.41
2022-08-25T13:11:11.154Z,32.48
2022-08-25T13:13:49.581Z,32.56
2022-08-25T13:16:19.915Z,32.21
2022-08-25T13:18:51.648Z,32.59
2022-08-25T13:21:23.252Z,32.78
2022-08-25T13:23:53.850Z,32.99
2022-08-25T13:26:24.077Z,33.12
2022-08-25T13:28:57.333Z,33.40
2022-08-25T13:31:25.818Z,33.50
2022-08-25T13:33:55.773Z,33.66
2022-08-25T13:36:24.241Z,33.98
2022-08-25T13:38:51.636Z,33.89
2022-08-25T13:41:23.742Z,33.92
2022-08-25T13:44:00.861Z,33.91
2022-08-25T13:46:29.950Z,33.98
2022-08-25T13:49:05.705Z,33.26
2022-08-25T13:51:36.815Z,33.10
2022-08-25T13:54:07.182Z,32.79
2022-08-25T13:56:41.043Z,32.51
2022-08-25T13:59:23.071Z,32.28
2022-08-25T14:01:52.197Z,32.19
2022-08-25T14:04:31.740Z,32.44
2022-08-25T14:07:24.617Z,32.69
2022-08-25T14:09:55.265Z,32.68
2022-08-25T14:12:33.684Z,33.06
2022-08-25T14:15:07.715Z,33.23
2022-08-25T14:17:41.471Z,33.12
2022-08-25T14:20:20.339Z,33.10
2022-08-25T14:22:58.080Z,33.31
2022-08-25T14:25:26.169Z,33.63
2022-08-25T14:28:13.536Z,33.77
2022-08-25T14:30:46.017Z,33.96
2022-08-25T14:33:15.892Z,34.08
2022-08-25T14:35:48.854Z,33.87
2022-08-25T14:38:17.033Z,33.70
2022-08-25T14:40:45.205Z,33.29
2022-08-25T14:43:12.909Z,33.35
2022-08-25T14:45:48.070Z,33.14
2022-08-25T14:48:47.464Z,33.04
2022-08-25T14:51:17.509Z,32.95
2022-08-25T14:53:45.080Z,33.04
2022-08-25T14:56:14.223Z,32.79
2022-08-25T14:58:48.305Z,32.85
2022-08-25T15:01:29.062Z,32.79
2022-08-25T15:04:03.542Z,32.39
2022-08-25T15:06:30.948Z,32.23
2022-08-25T15:08:58.540Z,32.07
2022-08-25T15:11:26.330Z,31.76
2022-08-25T15:13:54.022Z,31.50
2022-08-25T15:16:33.847Z,31.53
2022-08-25T15:19:03.510Z,31.64
2022-08-25T15:21:35.762Z,31.57
2022-08-25T15:24:03.931Z,31.72
2022-08-25T15:26:34.561Z,31.39
2022-08-25T15:29:04.248Z,31.36
2022-08-25T15:31:32.930Z,31.35
2022-08-25T15:34:01.650Z,31.24
2022-08-25T15:36:29.325Z,31.31
2022-08-25T15:38:56.541Z,30.95
2022-08-25T15:41:27.657Z,30.89
2022-08-25T15:43:55.819Z,30.84
2022-08-25T15:46:26.140Z,31.02
2022-08-25T15:51:28.882Z,30.99
2022-08-25T15:53:57.078Z,30.96
2022-08-25T15:56:28.385Z,30.88
2022-08-25T15:58:55.991Z,30.84
2022-08-25T16:01:25.022Z,30.80
2022-08-25T16:03:52.851Z,30.90
2022-08-25T16:06:22.514Z,30.87
2022-08-25T16:08:50.299Z,30.77
2022-08-25T16:11:19.240Z,30.54
2022-08-25T16:13:46.975Z,30.53
2022-08-25T16:16:16.526Z,30.63
2022-08-25T16:18:44.617Z,30.46
2022-08-25T16:21:13.887Z,30.47
2022-08-25T16:23:43.177Z,30.41
2022-08-25T16:26:13.031Z,30.15
2022-08-25T16:28:43.747Z,30.02
2022-08-25T16:31:12.419Z,29.90
2022-08-25T16:36:15.730Z,30.07
2022-08-25T16:38:49.041Z,30.02
2022-08-25T16:41:20.004Z,30.07
2022-08-25T16:43:48.122Z,29.98
2022-08-25T16:46:18.378Z,29.99
2022-08-25T16:48:46.562Z,29.95
2022-08-25T16:51:16.834Z,29.85
2022-08-25T16:53:49.019Z,29.85
2022-08-25T16:56:16.221Z,29.98
2022-08-25T16:58:43.524Z,29.93
2022-08-25T17:01:13.488Z,29.73
2022-08-25T17:03:43.844Z,29.47
2022-08-25T17:06:11.794Z,29.76
2022-08-25T17:08:39.818Z,29.81
2022-08-25T17:11:11.229Z,29.70
2022-08-25T17:13:40.476Z,29.78
2022-08-25T17:16:16.381Z,29.91
2022-08-25T17:18:56.169Z,29.82
2022-08-25T17:21:27.103Z,29.94
2022-08-25T17:23:55.653Z,29.98
2022-08-25T17:26:29.314Z,29.99
2022-08-25T17:28:59.742Z,29.93
2022-08-25T17:31:29.927Z,29.79
2022-08-25T17:34:00.275Z,29.48
2022-08-25T17:36:28.192Z,29.67
2022-08-25T17:38:57.058Z,29.82
2022-08-25T17:41:29.616Z,29.79
2022-08-25T17:44:02.175Z,29.56
2022-08-25T17:46:29.560Z,29.47
2022-08-25T17:48:56.994Z,29.22
2022-08-25T17:51:26.190Z,28.95
2022-08-25T18:47:21.688Z,26.49
2022-08-25T18:49:49.522Z,26.21
2022-08-25T18:52:17.059Z,26.45
2022-08-25T18:54:47.723Z,26.73
2022-08-25T18:57:18.755Z,26.64
2022-08-25T18:59:46.151Z,26.73
2022-08-25T19:02:13.678Z,26.38
2022-08-25T19:04:43.619Z,25.07
2022-08-25T19:07:11.013Z,25.02
2022-08-25T19:09:38.337Z,24.97
2022-08-25T19:12:07.014Z,24.96
2022-08-25T19:14:39.248Z,25.11
2022-08-25T19:17:06.933Z,25.22
2022-08-25T19:19:34.294Z,25.25
2022-08-25T19:22:03.280Z,25.33
2022-08-25T19:24:31.590Z,25.37
2022-08-25T19:26:59.008Z,25.60
2022-08-25T19:29:26.376Z,25.55
2022-08-25T19:31:55.804Z,25.71
2022-08-25T19:34:28.047Z,25.97
2022-08-25T19:37:00.051Z,25.80
2022-08-25T19:39:28.719Z,25.65
2022-08-25T19:41:58.233Z,25.62
2022-08-25T19:44:27.736Z,25.47
2022-08-25T19:46:56.085Z,25.43
2022-08-25T19:49:27.934Z,25.64
2022-08-25T19:52:01.151Z,25.73
2022-08-25T19:54:32.913Z,25.74
2022-08-25T19:57:01.769Z,25.55
2022-08-25T19:59:34.255Z,25.59
2022-08-25T20:02:10.815Z,25.62
2022-08-25T20:04:38.238Z,25.79
2022-08-25T20:07:07.472Z,25.88
2022-08-25T20:09:42.101Z,25.86
2022-08-25T20:14:41.436Z,25.24
2022-08-25T20:17:14.669Z,25.07
2022-08-25T20:19:54.421Z,25.12
2022-08-25T20:22:26.391Z,25.05
2022-08-25T20:24:58.617Z,25.02
2022-08-25T20:27:28.805Z,25.26
2022-08-25T20:29:56.463Z,25.07
2022-08-25T20:32:24.186Z,24.92
2022-08-25T20:34:53.403Z,24.88
2022-08-25T20:37:23.133Z,24.71
2022-08-25T20:39:52.020Z,24.69
2022-08-25T20:42:20.922Z,24.52
2022-08-25T20:44:48.762Z,24.37
2022-08-25T20:47:16.086Z,24.47
2022-08-25T20:49:43.480Z,24.53
2022-08-25T20:52:11.284Z,24.55
2022-08-25T20:54:39.291Z,24.61
2022-08-25T20:57:08.212Z,24.47
2022-08-25T20:59:37.326Z,24.47
2022-08-25T21:02:04.932Z,24.39
2022-08-25T21:04:32.505Z,24.30
2022-08-25T21:07:00.364Z,24.52
2022-08-25T21:09:28.814Z,24.35
2022-08-25T21:11:57.574Z,24.38
2022-08-25T21:14:26.193Z,24.40
2022-08-25T21:16:55.773Z,24.16
2022-08-25T21:19:26.888Z,24.11
2022-08-25T21:21:59.867Z,24.10
2022-08-25T21:24:28.537Z,24.09
2022-08-25T21:26:57.833Z,23.92
2022-08-25T21:29:28.604Z,23.97
2022-08-25T21:31:57.618Z,24.08
2022-08-25T21:34:25.404Z,24.03
2022-08-25T21:36:56.307Z,23.94
2022-08-25T21:39:23.979Z,24.02
2022-08-25T21:41:52.864Z,24.10
2022-08-25T21:44:21.259Z,24.09
2022-08-25T21:46:54.258Z,24.00
2022-08-25T21:49:24.616Z,23.87
2022-08-25T21:52:00.481Z,24.08
2022-08-25T21:54:29.236Z,24.09
2022-08-25T21:56:58.971Z,23.96
2022-08-25T21:59:28.995Z,23.87
2022-08-25T22:01:57.736Z,23.78
2022-08-25T22:04:27.784Z,23.81
2022-08-25T22:06:55.838Z,23.90
2022-08-25T22:09:25.564Z,23.86
2022-08-25T22:11:52.906Z,23.89
2022-08-25T22:14:22.407Z,24.04
2022-08-25T22:16:52.171Z,23.82
2022-08-25T22:19:19.584Z,23.53
2022-08-25T22:21:48.197Z,23.52
2022-08-25T22:24:15.939Z,23.75
2022-08-25T22:26:43.505Z,23.81
2022-08-25T22:29:16.218Z,23.91
2022-08-25T22:32:13.538Z,23.80
2022-08-25T22:34:41.461Z,23.51
2022-08-25T22:37:12.675Z,23.47
2022-08-25T22:39:44.405Z,23.23
2022-08-25T22:42:11.963Z,23.33
2022-08-25T22:44:39.910Z,23.23
2022-08-25T22:47:07.467Z,23.15
2022-08-25T22:49:35.555Z,23.27
2022-08-25T22:52:03.250Z,23.10
2022-08-25T22:54:31.966Z,22.98
2022-08-25T22:57:04.587Z,22.98
2022-08-25T22:59:34.310Z,22.98
2022-08-25T23:02:01.841Z,22.87
2022-08-25T23:04:29.652Z,22.64
2022-08-25T23:06:56.950Z,22.76
2022-08-25T23:09:24.803Z,22.51
2022-08-25T23:11:53.526Z,22.59
2022-08-25T23:14:21.629Z,22.50
2022-08-25T23:16:49.783Z,22.48
2022-08-25T23:19:17.961Z,22.23
2022-08-25T23:21:45.770Z,22.29
2022-08-25T23:24:14.547Z,22.36
2022-08-25T23:26:59.364Z,22.40
2022-08-25T23:29:27.780Z,22.39
2022-08-25T23:31:55.450Z,22.47
2022-08-25T23:34:23.305Z,22.53
2022-08-25T23:36:51.756Z,22.53
2022-08-25T23:39:19.020Z,22.56
2022-08-25T23:41:49.559Z,22.51
2022-08-25T23:44:19.075Z,22.47
2022-08-25T23:46:47.069Z,22.20
2022-08-25T23:49:18.520Z,22.10
2022-08-25T23:51:47.572Z,21.96
2022-08-25T23:54:15.992Z,21.98
2022-08-25T23:56:51.747Z,21.96
2022-08-25T23:59:24.318Z,21.96
